createdAt,value
2019-06-07T00:00:57.893Z,1010.17
2019-06-07T00:01:57.881Z,1010.12
2019-06-07T00:02:57.861Z,1010.08
2019-06-07T00:03:57.864Z,1010.11
2019-06-07T00:04:57.871Z,1010.14
2019-06-07T00:05:57.956Z,1010.12
2019-06-07T00:06:57.888Z,1010.10
2019-06-07T00:08:07.643Z,1010.14
2019-06-07T00:08:58.878Z,1010.12
2019-06-07T00:09:57.824Z,1010.12
2019-06-07T00:10:57.780Z,1010.07
2019-06-07T00:11:57.819Z,1010.03
2019-06-07T00:12:57.760Z,1010.04
2019-06-07T00:13:57.746Z,1010.04
2019-06-07T00:14:57.770Z,1010.02
2019-06-07T00:15:57.716Z,1010.04
2019-06-07T00:16:57.718Z,1009.99
2019-06-07T00:17:57.710Z,1009.90
2019-06-07T00:18:57.694Z,1009.89
2019-06-07T00:19:58.384Z,1009.87
2019-06-07T00:20:57.709Z,1009.90
2019-06-07T00:22:18.350Z,1009.86
2019-06-07T00:22:58.646Z,1009.85
2019-06-07T00:23:58.404Z,1009.83
2019-06-07T00:24:57.626Z,1009.80
2019-06-07T00:25:57.655Z,1009.79
2019-06-07T00:26:59.107Z,1009.80
2019-06-07T00:27:57.590Z,1009.89
2019-06-07T00:28:57.602Z,1009.81
2019-06-07T00:29:57.608Z,1009.87
2019-06-07T00:30:57.603Z,1009.90
2019-06-07T00:31:57.582Z,1009.87
2019-06-07T00:32:57.546Z,1009.91
2019-06-07T00:33:57.553Z,1009.93
2019-06-07T00:34:57.530Z,1009.92
2019-06-07T00:35:57.537Z,1009.98
2019-06-07T00:36:58.400Z,1010.02
2019-06-07T00:37:57.486Z,1010.04
2019-06-07T00:38:57.475Z,1010.04
2019-06-07T00:40:13.480Z,1010.00
2019-06-07T00:40:58.476Z,1010.08
2019-06-07T00:41:57.442Z,1010.09
2019-06-07T00:42:57.428Z,1010.03
2019-06-07T00:43:57.430Z,1010.03
2019-06-07T00:44:57.456Z,1010.00
2019-06-07T00:45:57.431Z,1009.95
2019-06-07T00:46:57.412Z,1009.91
2019-06-07T00:47:57.406Z,1009.94
2019-06-07T00:48:57.358Z,1009.92
2019-06-07T00:49:57.362Z,1009.89
2019-06-07T00:50:57.387Z,1009.93
2019-06-07T00:51:57.337Z,1009.93
2019-06-07T00:53:17.569Z,1009.94
2019-06-07T00:53:58.307Z,1009.93
2019-06-07T00:54:57.296Z,1009.98
2019-06-07T00:55:57.293Z,1009.99
2019-06-07T00:56:57.311Z,1009.95
2019-06-07T00:57:57.277Z,1009.91
2019-06-07T00:59:10.838Z,1009.89
2019-06-07T00:59:58.247Z,1009.87
2019-06-07T01:00:57.243Z,1009.87
2019-06-07T01:01:57.292Z,1009.86
2019-06-07T01:02:57.228Z,1009.86
2019-06-07T01:03:57.210Z,1009.85
2019-06-07T01:04:57.203Z,1009.84
2019-06-07T01:05:57.196Z,1009.88
2019-06-07T01:06:57.233Z,1009.89
2019-06-07T01:07:57.185Z,1009.91
2019-06-07T01:08:57.164Z,1009.85
2019-06-07T01:09:57.170Z,1009.89
2019-06-07T01:10:57.131Z,1009.87
2019-06-07T01:11:57.151Z,1009.89
2019-06-07T01:12:57.118Z,1009.90
2019-06-07T01:13:57.099Z,1009.92
2019-06-07T01:14:57.107Z,1009.93
2019-06-07T01:15:57.075Z,1009.94
2019-06-07T01:17:13.510Z,1009.92
2019-06-07T01:18:33.884Z,1009.93
2019-06-07T01:18:58.044Z,1009.98
2019-06-07T01:19:57.028Z,1009.98
2019-06-07T01:20:57.017Z,1009.99
2019-06-07T01:21:57.039Z,1009.99
2019-06-07T01:22:56.998Z,1010.00
2019-06-07T01:24:11.313Z,1009.99
2019-06-07T01:24:57.982Z,1009.97
2019-06-07T01:25:56.967Z,1009.93
2019-06-07T01:26:56.978Z,1009.95
2019-06-07T01:27:56.974Z,1009.92
2019-06-07T01:28:56.943Z,1009.98
2019-06-07T01:29:56.934Z,1009.98
2019-06-07T01:30:56.952Z,1010.00
2019-06-07T01:31:56.956Z,1009.94
2019-06-07T01:32:56.941Z,1010.01
2019-06-07T01:33:56.879Z,1010.02
2019-06-07T01:34:56.879Z,1009.99
2019-06-07T01:35:56.847Z,1010.03
2019-06-07T01:36:56.860Z,1010.00
2019-06-07T01:37:56.874Z,1010.03
2019-06-07T01:38:56.830Z,1010.01
2019-06-07T01:39:56.820Z,1010.00
2019-06-07T01:40:56.815Z,1009.97
2019-06-07T01:41:56.838Z,1009.99
2019-06-07T01:42:56.802Z,1009.99
2019-06-07T01:43:56.777Z,1009.99
2019-06-07T01:44:56.770Z,1009.97
2019-06-07T01:45:56.755Z,1009.99
2019-06-07T01:46:56.730Z,1009.94
2019-06-07T01:47:56.766Z,1009.97
2019-06-07T01:48:56.710Z,1009.92
2019-06-07T01:49:56.692Z,1009.92
2019-06-07T01:50:56.703Z,1009.90
2019-06-07T01:51:56.681Z,1009.88
2019-06-07T01:52:56.699Z,1009.83
2019-06-07T01:54:41.413Z,1009.83
2019-06-07T01:54:58.975Z,1009.82
2019-06-07T01:55:56.629Z,1009.75
2019-06-07T01:56:56.658Z,1009.84
2019-06-07T01:57:56.668Z,1009.84
2019-06-07T01:58:56.606Z,1009.80
2019-06-07T01:59:56.607Z,1009.82
2019-06-07T02:00:56.604Z,1009.81
2019-06-07T02:01:56.569Z,1009.82
2019-06-07T02:02:56.603Z,1009.83
2019-06-07T02:03:56.551Z,1009.80
2019-06-07T02:04:56.561Z,1009.76
2019-06-07T02:05:56.551Z,1009.71
2019-06-07T02:06:56.533Z,1009.70
2019-06-07T02:07:56.539Z,1009.63
2019-06-07T02:08:56.509Z,1009.64
2019-06-07T02:09:56.494Z,1009.61
2019-06-07T02:10:56.477Z,1009.64
2019-06-07T02:11:56.460Z,1009.68
2019-06-07T02:12:56.488Z,1009.66
2019-06-07T02:13:56.457Z,1009.65
2019-06-07T02:14:56.448Z,1009.60
2019-06-07T02:15:56.439Z,1009.65
2019-06-07T02:16:56.424Z,1009.65
2019-06-07T02:17:56.425Z,1009.63
2019-06-07T02:19:01.939Z,1009.65
2019-06-07T02:19:57.380Z,1009.64
2019-06-07T02:20:56.375Z,1009.62
2019-06-07T02:21:56.352Z,1009.59
2019-06-07T02:22:56.373Z,1009.52
2019-06-07T02:23:56.332Z,1009.57
2019-06-07T02:25:34.467Z,1009.52
2019-06-07T02:25:57.307Z,1009.59
2019-06-07T02:26:56.311Z,1009.53
2019-06-07T02:28:25.793Z,1009.54
2019-06-07T02:28:57.286Z,1009.50
2019-06-07T02:29:56.272Z,1009.50
2019-06-07T02:30:59.774Z,1009.53
2019-06-07T02:31:56.268Z,1009.48
2019-06-07T02:32:56.273Z,1009.45
2019-06-07T02:33:56.252Z,1009.45
2019-06-07T02:34:56.268Z,1009.42
2019-06-07T02:35:56.199Z,1009.44
2019-06-07T02:36:56.194Z,1009.40
2019-06-07T02:37:56.189Z,1009.41
2019-06-07T02:38:56.191Z,1009.43
2019-06-07T02:39:56.152Z,1009.37
2019-06-07T02:40:56.147Z,1009.42
2019-06-07T02:41:56.144Z,1009.43
2019-06-07T02:42:56.127Z,1009.41
2019-06-07T02:43:56.151Z,1009.51
2019-06-07T02:44:56.110Z,1009.51
2019-06-07T02:45:56.102Z,1009.54
2019-06-07T02:46:56.097Z,1009.46
2019-06-07T02:47:56.088Z,1009.41
2019-06-07T02:48:56.096Z,1009.44
2019-06-07T02:49:56.059Z,1009.40
2019-06-07T02:50:56.042Z,1009.31
2019-06-07T02:51:56.050Z,1009.30
2019-06-07T02:52:56.016Z,1009.33
2019-06-07T02:53:56.034Z,1009.28
2019-06-07T02:54:56.008Z,1009.24
2019-06-07T02:56:35.274Z,1009.27
2019-06-07T02:56:58.952Z,1009.19
2019-06-07T02:57:55.972Z,1009.15
2019-06-07T02:58:55.983Z,1009.11
2019-06-07T03:00:07.786Z,1009.17
2019-06-07T03:01:08.591Z,1009.04
2019-06-07T03:01:56.945Z,1009.08
2019-06-07T03:02:55.919Z,1009.02
2019-06-07T03:03:56.338Z,1009.10
2019-06-07T03:04:55.895Z,1009.12
2019-06-07T03:05:55.905Z,1009.11
2019-06-07T03:06:56.309Z,1009.12
2019-06-07T03:07:55.855Z,1009.16
2019-06-07T03:08:55.865Z,1009.16
2019-06-07T03:09:55.875Z,1009.15
2019-06-07T03:10:55.827Z,1009.11
2019-06-07T03:11:55.827Z,1009.12
2019-06-07T03:12:55.808Z,1009.11
2019-06-07T03:13:55.832Z,1009.06
2019-06-07T03:14:55.783Z,1009.02
2019-06-07T03:15:55.777Z,1009.09
2019-06-07T03:16:55.763Z,1009.04
2019-06-07T03:17:55.754Z,1009.04
2019-06-07T03:18:55.757Z,1009.03
2019-06-07T03:19:55.773Z,1009.00
2019-06-07T03:21:04.970Z,1008.97
2019-06-07T03:21:56.714Z,1008.97
2019-06-07T03:22:55.703Z,1008.98
2019-06-07T03:23:55.694Z,1008.95
2019-06-07T03:24:55.708Z,1008.97
2019-06-07T03:25:55.680Z,1008.97
2019-06-07T03:27:34.100Z,1008.97
2019-06-07T03:27:56.643Z,1008.98
2019-06-07T03:28:55.650Z,1008.98
2019-06-07T03:29:55.649Z,1009.02
2019-06-07T03:31:02.067Z,1009.00
2019-06-07T03:31:56.602Z,1009.00
2019-06-07T03:32:55.592Z,1008.96
2019-06-07T03:33:55.609Z,1009.02
2019-06-07T03:34:55.612Z,1009.04
2019-06-07T03:35:55.554Z,1009.05
2019-06-07T03:36:55.554Z,1009.02
2019-06-07T03:37:55.542Z,1009.01
2019-06-07T03:38:55.581Z,1008.94
2019-06-07T03:39:55.540Z,1008.98
2019-06-07T03:40:55.523Z,1008.95
2019-06-07T03:42:05.865Z,1008.90
2019-06-07T03:42:56.523Z,1008.93
2019-06-07T03:43:55.468Z,1008.94
2019-06-07T03:44:55.463Z,1008.91
2019-06-07T03:45:55.485Z,1008.91
2019-06-07T03:46:55.435Z,1008.89
2019-06-07T03:47:55.425Z,1008.86
2019-06-07T03:48:55.422Z,1008.92
2019-06-07T03:49:55.434Z,1008.88
2019-06-07T03:51:04.102Z,1008.87
2019-06-07T03:51:56.385Z,1008.85
2019-06-07T03:52:55.374Z,1008.89
2019-06-07T03:53:55.364Z,1008.82
2019-06-07T03:54:55.402Z,1008.82
2019-06-07T03:55:55.366Z,1008.81
2019-06-07T03:56:55.335Z,1008.82
2019-06-07T03:58:56.318Z,1008.84
2019-06-07T03:59:55.295Z,1008.90
2019-06-07T04:00:55.305Z,1008.82
2019-06-07T04:01:55.276Z,1008.84
2019-06-07T04:02:55.265Z,1008.85
2019-06-07T04:03:55.255Z,1008.88
2019-06-07T04:04:55.274Z,1008.83
2019-06-07T04:05:55.260Z,1008.82
2019-06-07T04:06:55.252Z,1008.84
2019-06-07T04:07:55.218Z,1008.87
2019-06-07T04:08:55.209Z,1008.84
2019-06-07T04:09:55.183Z,1008.87
2019-06-07T04:11:00.307Z,1008.89
2019-06-07T04:11:56.165Z,1008.85
2019-06-07T04:12:55.155Z,1008.86
2019-06-07T04:13:55.139Z,1008.84
2019-06-07T04:14:55.135Z,1008.77
2019-06-07T04:15:55.130Z,1008.80
2019-06-07T04:16:55.138Z,1008.79
2019-06-07T04:18:01.937Z,1008.74
2019-06-07T04:18:56.085Z,1008.77
2019-06-07T04:19:55.079Z,1008.72
2019-06-07T04:20:55.097Z,1008.66
2019-06-07T04:21:55.077Z,1008.64
2019-06-07T04:22:55.037Z,1008.68
2019-06-07T04:23:55.036Z,1008.66
2019-06-07T04:24:55.034Z,1008.67
2019-06-07T04:25:55.035Z,1008.60
2019-06-07T04:26:55.056Z,1008.64
2019-06-07T04:27:54.990Z,1008.59
2019-06-07T04:29:31.553Z,1008.60
2019-06-07T04:30:07.578Z,1008.56
2019-06-07T04:30:55.959Z,1008.48
2019-06-07T04:31:54.976Z,1008.47
2019-06-07T04:32:54.997Z,1008.45
2019-06-07T04:33:54.929Z,1008.48
2019-06-07T04:34:55.588Z,1008.45
2019-06-07T04:35:54.916Z,1008.47
2019-06-07T04:36:58.968Z,1008.47
2019-06-07T04:37:54.896Z,1008.44
2019-06-07T04:38:54.874Z,1008.40
2019-06-07T04:39:54.877Z,1008.42
2019-06-07T04:40:54.851Z,1008.43
2019-06-07T04:41:54.886Z,1008.45
2019-06-07T04:42:54.860Z,1008.45
2019-06-07T04:43:54.826Z,1008.46
2019-06-07T04:44:54.817Z,1008.44
2019-06-07T04:45:54.806Z,1008.49
2019-06-07T04:46:54.839Z,1008.44
2019-06-07T04:47:54.848Z,1008.49
2019-06-07T04:48:54.766Z,1008.52
2019-06-07T04:49:54.772Z,1008.50
2019-06-07T04:50:54.746Z,1008.50
2019-06-07T04:51:54.759Z,1008.47
2019-06-07T04:52:54.719Z,1008.53
2019-06-07T04:53:54.724Z,1008.45
2019-06-07T04:54:54.707Z,1008.52
2019-06-07T04:55:54.696Z,1008.44
2019-06-07T04:56:54.727Z,1008.45
2019-06-07T04:57:54.680Z,1008.37
2019-06-07T04:58:54.671Z,1008.43
2019-06-07T05:00:12.272Z,1008.42
2019-06-07T05:01:02.620Z,1008.41
2019-06-07T05:01:55.659Z,1008.38
2019-06-07T05:02:54.622Z,1008.44
2019-06-07T05:03:54.629Z,1008.35
2019-06-07T05:04:54.597Z,1008.34
2019-06-07T05:05:54.587Z,1008.38
2019-06-07T05:06:54.614Z,1008.41
2019-06-07T05:07:54.572Z,1008.42
2019-06-07T05:08:54.568Z,1008.39
2019-06-07T05:09:54.582Z,1008.36
2019-06-07T05:10:54.537Z,1008.33
2019-06-07T05:11:54.519Z,1008.30
2019-06-07T05:12:54.566Z,1008.29
2019-06-07T05:13:54.499Z,1008.28
2019-06-07T05:14:54.483Z,1008.24
2019-06-07T05:15:54.477Z,1008.24
2019-06-07T05:16:54.509Z,1008.18
2019-06-07T05:17:54.488Z,1008.22
2019-06-07T05:18:54.439Z,1008.22
2019-06-07T05:19:54.461Z,1008.14
2019-06-07T05:20:54.443Z,1008.15
2019-06-07T05:22:04.164Z,1008.15
2019-06-07T05:22:55.419Z,1008.19
2019-06-07T05:24:09.489Z,1008.11
2019-06-07T05:24:55.380Z,1008.12
2019-06-07T05:25:54.367Z,1008.08
2019-06-07T05:26:54.368Z,1008.01
2019-06-07T05:27:54.371Z,1008.05
2019-06-07T05:28:54.340Z,1008.01
2019-06-07T05:30:13.227Z,1007.97
2019-06-07T05:31:04.752Z,1007.99
2019-06-07T05:31:55.299Z,1007.95
2019-06-07T05:32:54.349Z,1007.99
2019-06-07T05:33:54.290Z,1007.96
2019-06-07T05:34:54.289Z,1008.01
2019-06-07T05:35:54.288Z,1007.95
2019-06-07T05:37:10.996Z,1007.94
2019-06-07T05:37:55.280Z,1007.96
2019-06-07T05:38:54.237Z,1007.88
2019-06-07T05:39:54.217Z,1007.90
2019-06-07T05:40:54.236Z,1007.93
2019-06-07T05:41:54.237Z,1007.91
2019-06-07T05:42:54.193Z,1007.82
2019-06-07T05:44:11.661Z,1007.78
2019-06-07T05:44:55.421Z,1007.82
2019-06-07T05:45:54.166Z,1007.78
2019-06-07T05:46:54.154Z,1007.78
2019-06-07T05:47:54.174Z,1007.86
2019-06-07T05:48:54.157Z,1007.82
2019-06-07T05:49:54.140Z,1007.82
2019-06-07T05:50:57.758Z,1007.83
2019-06-07T05:51:54.085Z,1007.82
2019-06-07T05:52:54.090Z,1007.83
2019-06-07T05:53:54.095Z,1007.79
2019-06-07T05:54:54.080Z,1007.81
2019-06-07T05:55:54.078Z,1007.79
2019-06-07T05:56:54.051Z,1007.84
2019-06-07T05:57:54.022Z,1007.81
2019-06-07T05:58:54.048Z,1007.75
2019-06-07T05:59:54.054Z,1007.71
2019-06-07T06:00:54.010Z,1007.68
2019-06-07T06:02:02.840Z,1007.63
2019-06-07T06:03:04.999Z,1007.63
2019-06-07T06:03:54.982Z,1007.61
2019-06-07T06:04:53.953Z,1007.62
2019-06-07T06:05:55.557Z,1007.57
2019-06-07T06:06:53.962Z,1007.52
2019-06-07T06:07:53.922Z,1007.54
2019-06-07T06:09:11.557Z,1007.47
2019-06-07T06:09:54.910Z,1007.59
2019-06-07T06:10:54.157Z,1007.56
2019-06-07T06:12:01.863Z,1007.56
2019-06-07T06:12:54.868Z,1007.55
2019-06-07T06:14:06.826Z,1007.56
2019-06-07T06:14:54.841Z,1007.68
2019-06-07T06:16:01.370Z,1007.61
2019-06-07T06:16:54.833Z,1007.57
2019-06-07T06:17:54.232Z,1007.68
2019-06-07T06:18:53.809Z,1007.64
2019-06-07T06:19:53.836Z,1007.59
2019-06-07T06:21:15.540Z,1007.57
2019-06-07T06:21:54.776Z,1007.56
2019-06-07T06:22:53.766Z,1007.62
2019-06-07T06:23:54.019Z,1007.58
2019-06-07T06:25:29.696Z,1007.53
2019-06-07T06:25:57.675Z,1007.54
2019-06-07T06:27:00.211Z,1007.47
2019-06-07T06:28:09.856Z,1007.44
2019-06-07T06:28:54.718Z,1007.45
2019-06-07T06:29:53.705Z,1007.49
2019-06-07T06:30:53.685Z,1007.51
2019-06-07T06:32:39.477Z,1007.41
2019-06-07T06:32:58.114Z,1007.42
2019-06-07T06:33:53.664Z,1007.33
2019-06-07T06:34:55.751Z,1007.32
2019-06-07T06:35:53.636Z,1007.32
2019-06-07T06:36:53.606Z,1007.28
2019-06-07T06:37:53.638Z,1007.29
2019-06-07T06:38:53.734Z,1007.35
2019-06-07T06:39:53.609Z,1007.32
2019-06-07T06:41:13.984Z,1007.30
2019-06-07T06:42:03.285Z,1007.31
2019-06-07T06:42:54.546Z,1007.30
2019-06-07T06:43:53.539Z,1007.31
2019-06-07T06:44:54.187Z,1007.27
2019-06-07T06:45:53.542Z,1007.29
2019-06-07T06:46:58.283Z,1007.32
2019-06-07T06:47:54.522Z,1007.30
2019-06-07T06:48:55.308Z,1007.29
2019-06-07T06:49:54.447Z,1007.31
2019-06-07T06:50:53.476Z,1007.30
2019-06-07T06:51:53.976Z,1007.30
2019-06-07T06:52:54.718Z,1007.18
2019-06-07T06:53:53.438Z,1007.26
2019-06-07T06:55:00.033Z,1007.26
2019-06-07T06:55:54.463Z,1007.23
2019-06-07T06:56:53.399Z,1007.26
2019-06-07T06:57:53.397Z,1007.29
2019-06-07T06:59:33.988Z,1007.26
2019-06-07T06:59:54.378Z,1007.24
2019-06-07T07:01:05.367Z,1007.31
2019-06-07T07:01:54.340Z,1007.28
2019-06-07T07:03:39.265Z,1007.25
2019-06-07T07:04:11.059Z,1007.28
2019-06-07T07:04:54.368Z,1007.20
2019-06-07T07:05:54.903Z,1007.19
2019-06-07T07:06:53.874Z,1007.11
2019-06-07T07:07:53.294Z,1007.19
2019-06-07T07:08:53.573Z,1007.14
2019-06-07T07:09:58.756Z,1007.18
2019-06-07T07:10:54.989Z,1007.17
2019-06-07T07:12:10.406Z,1007.18
2019-06-07T07:12:54.240Z,1007.14
2019-06-07T07:13:56.496Z,1007.09
2019-06-07T07:14:56.043Z,1007.11
2019-06-07T07:15:57.918Z,1007.03
2019-06-07T07:16:56.663Z,1007.10
2019-06-07T07:18:03.864Z,1007.03
2019-06-07T07:18:54.863Z,1006.98
2019-06-07T07:19:55.644Z,1007.01
2019-06-07T07:20:56.881Z,1006.98
2019-06-07T07:21:55.227Z,1007.01
2019-06-07T07:22:56.819Z,1007.01
2019-06-07T07:24:19.672Z,1006.96
2019-06-07T07:24:54.958Z,1006.88
2019-06-07T07:25:58.604Z,1006.91
2019-06-07T07:26:58.303Z,1006.93
2019-06-07T07:27:55.270Z,1006.98
2019-06-07T07:28:57.150Z,1006.93
2019-06-07T07:30:22.762Z,1006.96
2019-06-07T07:30:56.926Z,1006.78
2019-06-07T07:31:55.843Z,1006.86
2019-06-07T07:32:54.167Z,1006.91
2019-06-07T07:34:59.984Z,1006.84
2019-06-07T07:36:18.578Z,1006.85
2019-06-07T07:36:59.226Z,1006.80
2019-06-07T07:37:59.461Z,1006.80
2019-06-07T07:39:00.429Z,1006.77
2019-06-07T07:40:01.086Z,1006.72
2019-06-07T07:41:08.968Z,1006.65
2019-06-07T07:42:13.752Z,1006.62
2019-06-07T07:42:56.291Z,1006.81
2019-06-07T07:44:01.650Z,1006.79
2019-06-07T07:44:56.490Z,1006.78
2019-06-07T07:45:59.307Z,1006.81
2019-06-07T07:46:55.929Z,1006.77
2019-06-07T07:48:08.660Z,1006.74
2019-06-07T07:48:54.700Z,1006.69
2019-06-07T07:49:56.400Z,1006.73
2019-06-07T07:51:00.050Z,1006.81
2019-06-07T07:51:58.323Z,1006.65
2019-06-07T07:53:00.049Z,1006.64
2019-06-07T07:54:09.062Z,1006.68
2019-06-07T07:54:56.615Z,1006.63
2019-06-07T07:55:58.459Z,1006.63
2019-06-07T07:56:56.085Z,1006.58
2019-06-07T07:58:00.943Z,1006.57
2019-06-07T07:58:56.159Z,1006.54
2019-06-07T08:00:05.958Z,1006.55
2019-06-07T08:01:07.164Z,1006.61
2019-06-07T08:01:56.008Z,1006.49
2019-06-07T08:02:53.749Z,1006.47
2019-06-07T08:03:54.892Z,1006.50
2019-06-07T08:05:20.573Z,1006.51
2019-06-07T08:05:58.395Z,1006.37
2019-06-07T08:06:56.005Z,1006.31
2019-06-07T08:07:56.482Z,1006.26
2019-06-07T08:08:55.874Z,1006.21
2019-06-07T08:09:59.575Z,1006.22
2019-06-07T08:10:58.151Z,1006.18
2019-06-07T08:12:00.069Z,1006.16
2019-06-07T08:13:18.171Z,1006.08
2019-06-07T08:13:57.013Z,1006.14
2019-06-07T08:14:57.493Z,1006.04
2019-06-07T08:15:58.784Z,1006.04
2019-06-07T08:16:54.478Z,1006.03
2019-06-07T08:17:58.036Z,1006.05
2019-06-07T08:18:57.466Z,1006.00
2019-06-07T08:19:55.028Z,1005.95
2019-06-07T08:21:08.693Z,1005.93
2019-06-07T08:21:55.523Z,1005.96
2019-06-07T08:22:52.681Z,1005.87
2019-06-07T08:23:58.282Z,1005.90
2019-06-07T08:24:55.308Z,1005.91
2019-06-07T08:25:56.393Z,1005.85
2019-06-07T08:27:17.898Z,1005.93
2019-06-07T08:27:56.814Z,1005.79
2019-06-07T08:28:55.880Z,1005.82
2019-06-07T08:30:08.991Z,1005.77
2019-06-07T08:31:02.293Z,1005.68
2019-06-07T08:31:55.901Z,1005.67
2019-06-07T08:32:57.720Z,1005.62
2019-06-07T08:33:57.999Z,1005.73
2019-06-07T08:34:56.832Z,1005.68
2019-06-07T08:36:54.935Z,1005.64
2019-06-07T08:38:22.147Z,1005.70
2019-06-07T08:38:57.859Z,1005.75
2019-06-07T08:39:57.559Z,1005.73
2019-06-07T08:40:59.089Z,1005.76
2019-06-07T08:42:01.498Z,1005.63
2019-06-07T08:43:10.734Z,1005.54
2019-06-07T08:43:55.332Z,1005.55
2019-06-07T08:44:55.944Z,1005.50
2019-06-07T08:45:58.511Z,1005.47
2019-06-07T08:47:11.604Z,1005.44
2019-06-07T08:47:59.378Z,1005.44
2019-06-07T08:48:54.042Z,1005.47
2019-06-07T08:49:55.989Z,1005.39
2019-06-07T08:50:55.330Z,1005.37
2019-06-07T08:52:02.608Z,1005.34
2019-06-07T08:52:56.987Z,1005.33
2019-06-07T08:54:09.274Z,1005.24
2019-06-07T08:54:54.874Z,1005.30
2019-06-07T08:55:58.257Z,1005.28
2019-06-07T08:56:57.396Z,1005.22
2019-06-07T08:57:57.258Z,1005.17
2019-06-07T08:58:55.005Z,1005.20
2019-06-07T08:59:55.703Z,1005.25
2019-06-07T09:00:55.174Z,1005.24
2019-06-07T09:01:54.527Z,1005.26
2019-06-07T09:02:54.962Z,1005.23
2019-06-07T09:03:55.006Z,1005.18
2019-06-07T09:04:56.429Z,1005.22
2019-06-07T09:05:54.192Z,1005.15
2019-06-07T09:07:06.733Z,1005.23
2019-06-07T09:08:13.354Z,1005.22
2019-06-07T09:08:53.818Z,1005.15
2019-06-07T09:09:58.507Z,1005.15
2019-06-07T09:10:54.049Z,1005.20
2019-06-07T09:11:52.431Z,1005.29
2019-06-07T09:12:54.402Z,1005.20
2019-06-07T09:13:54.460Z,1005.12
2019-06-07T09:15:09.330Z,1005.06
2019-06-07T09:15:53.695Z,1005.11
2019-06-07T09:16:51.918Z,1005.06
2019-06-07T09:18:57.032Z,1005.17
2019-06-07T09:19:55.496Z,1005.05
2019-06-07T09:20:51.840Z,1005.01
2019-06-07T09:21:51.832Z,1005.05
2019-06-07T09:22:51.834Z,1005.00
2019-06-07T09:23:51.832Z,1004.98
2019-06-07T09:24:51.815Z,1004.99
2019-06-07T09:26:00.997Z,1004.92
2019-06-07T09:26:52.770Z,1004.90
2019-06-07T09:27:51.858Z,1004.77
2019-06-07T09:28:51.775Z,1004.78
2019-06-07T09:29:51.779Z,1004.68
2019-06-07T09:30:51.738Z,1004.77
2019-06-07T09:31:53.721Z,1004.77
2019-06-07T09:32:51.691Z,1004.78
2019-06-07T09:33:51.698Z,1004.73
2019-06-07T09:34:51.699Z,1004.67
2019-06-07T09:35:51.671Z,1004.68
2019-06-07T09:36:51.642Z,1004.71
2019-06-07T09:38:07.685Z,1004.61
2019-06-07T09:38:52.633Z,1004.60
2019-06-07T09:39:51.657Z,1004.67
2019-06-07T09:40:51.607Z,1004.59
2019-06-07T09:41:51.607Z,1004.70
2019-06-07T09:43:38.340Z,1004.61
2019-06-07T09:44:05.477Z,1004.52
2019-06-07T09:44:52.590Z,1004.61
2019-06-07T09:45:51.565Z,1004.55
2019-06-07T09:47:12.493Z,1004.55
2019-06-07T09:47:52.555Z,1004.61
2019-06-07T09:49:52.515Z,1004.64
2019-06-07T09:50:51.536Z,1004.65
2019-06-07T09:51:51.516Z,1004.76
2019-06-07T09:52:58.688Z,1004.67
2019-06-07T09:53:52.481Z,1004.67
2019-06-07T09:55:21.709Z,1004.64
2019-06-07T09:55:52.507Z,1004.65
2019-06-07T09:56:51.427Z,1004.59
2019-06-07T09:57:51.441Z,1004.52
2019-06-07T09:58:53.606Z,1004.61
2019-06-07T09:59:51.407Z,1004.55
2019-06-07T10:00:51.428Z,1004.50
2019-06-07T10:01:51.382Z,1004.55
2019-06-07T10:02:51.389Z,1004.54
2019-06-07T10:03:51.383Z,1004.55
2019-06-07T10:04:51.358Z,1004.53
2019-06-07T10:05:51.383Z,1004.47
2019-06-07T10:06:51.328Z,1004.51
2019-06-07T10:08:02.657Z,1004.59
2019-06-07T10:10:52.335Z,1004.47
2019-06-07T10:11:51.292Z,1004.53
2019-06-07T10:12:51.250Z,1004.55
2019-06-07T10:13:51.251Z,1004.49
2019-06-07T10:14:51.252Z,1004.51
2019-06-07T10:15:53.626Z,1004.51
2019-06-07T10:16:51.226Z,1004.45
2019-06-07T10:17:51.234Z,1004.43
2019-06-07T10:18:51.186Z,1004.40
2019-06-07T10:19:51.190Z,1004.38
2019-06-07T10:20:51.222Z,1004.37
2019-06-07T10:21:51.172Z,1004.41
2019-06-07T10:22:51.172Z,1004.40
2019-06-07T10:23:51.160Z,1004.40
2019-06-07T10:24:51.146Z,1004.36
2019-06-07T10:25:51.156Z,1004.32
2019-06-07T10:26:51.148Z,1004.40
2019-06-07T10:27:51.111Z,1004.31
2019-06-07T10:28:53.388Z,1004.29
2019-06-07T10:29:51.089Z,1004.15
2019-06-07T10:30:51.099Z,1004.13
2019-06-07T10:31:51.094Z,1004.15
2019-06-07T10:32:52.319Z,1004.17
2019-06-07T10:33:51.048Z,1004.04
2019-06-07T10:34:51.040Z,1003.98
2019-06-07T10:35:51.047Z,1003.97
2019-06-07T10:36:51.103Z,1003.94
2019-06-07T10:37:51.006Z,1003.92
2019-06-07T10:38:51.078Z,1003.93
2019-06-07T10:39:50.975Z,1003.87
2019-06-07T10:40:51.009Z,1003.83
2019-06-07T10:41:53.971Z,1003.86
2019-06-07T10:42:50.936Z,1003.89
2019-06-07T10:43:50.946Z,1003.93
2019-06-07T10:44:50.981Z,1003.90
2019-06-07T10:45:50.913Z,1003.87
2019-06-07T10:46:50.951Z,1003.81
2019-06-07T10:47:50.901Z,1003.87
2019-06-07T10:48:50.868Z,1003.87
2019-06-07T10:49:50.882Z,1003.83
2019-06-07T10:50:50.860Z,1003.78
2019-06-07T10:51:50.874Z,1003.69
2019-06-07T10:52:50.845Z,1003.73
2019-06-07T10:53:50.829Z,1003.72
2019-06-07T10:54:50.844Z,1003.65
2019-06-07T10:55:50.845Z,1003.62
2019-06-07T10:56:50.825Z,1003.56
2019-06-07T10:57:50.790Z,1003.58
2019-06-07T10:58:51.732Z,1003.56
2019-06-07T10:59:50.751Z,1003.49
2019-06-07T11:00:51.116Z,1003.42
2019-06-07T11:01:50.766Z,1003.37
2019-06-07T11:02:50.723Z,1003.38
2019-06-07T11:03:50.752Z,1003.35
2019-06-07T11:04:50.715Z,1003.33
2019-06-07T11:05:50.721Z,1003.34
2019-06-07T11:06:50.728Z,1003.36
2019-06-07T11:07:50.758Z,1003.30
2019-06-07T11:08:50.669Z,1003.36
2019-06-07T11:10:05.693Z,1003.35
2019-06-07T11:10:51.653Z,1003.33
2019-06-07T11:11:50.633Z,1003.23
2019-06-07T11:12:50.680Z,1003.27
2019-06-07T11:13:52.554Z,1003.23
2019-06-07T11:14:50.594Z,1003.25
2019-06-07T11:15:50.670Z,1003.28
2019-06-07T11:16:50.605Z,1003.32
2019-06-07T11:17:50.605Z,1003.21
2019-06-07T11:18:50.559Z,1003.21
2019-06-07T11:19:50.554Z,1003.21
2019-06-07T11:20:50.593Z,1003.22
2019-06-07T11:21:50.576Z,1003.10
2019-06-07T11:22:50.539Z,1003.04
2019-06-07T11:23:50.505Z,1003.06
2019-06-07T11:24:50.497Z,1003.05
2019-06-07T11:25:50.480Z,1003.10
2019-06-07T11:26:50.500Z,1003.07
2019-06-07T11:27:50.497Z,1003.01
2019-06-07T11:28:50.472Z,1002.94
2019-06-07T11:29:50.451Z,1002.95
2019-06-07T11:30:50.431Z,1002.95
2019-06-07T11:31:50.463Z,1002.91
2019-06-07T11:32:50.442Z,1002.88
2019-06-07T11:33:50.423Z,1002.79
2019-06-07T11:34:50.392Z,1002.84
2019-06-07T11:35:50.406Z,1002.90
2019-06-07T11:36:51.139Z,1002.88
2019-06-07T11:37:50.410Z,1002.90
2019-06-07T11:38:50.336Z,1002.88
2019-06-07T11:39:50.341Z,1002.88
2019-06-07T11:40:50.349Z,1002.79
2019-06-07T11:41:50.335Z,1002.82
2019-06-07T11:42:52.750Z,1002.73
2019-06-07T11:43:50.305Z,1002.81
2019-06-07T11:44:56.813Z,1002.67
2019-06-07T11:45:51.279Z,1002.72
2019-06-07T11:46:50.270Z,1002.70
2019-06-07T11:47:50.301Z,1002.71
2019-06-07T11:48:50.275Z,1002.70
2019-06-07T11:49:50.223Z,1002.68
2019-06-07T11:50:50.210Z,1002.69
2019-06-07T11:51:50.220Z,1002.69
2019-06-07T11:52:50.199Z,1002.67
2019-06-07T11:53:50.206Z,1002.66
2019-06-07T11:54:50.204Z,1002.66
2019-06-07T11:55:50.164Z,1002.63
2019-06-07T11:56:50.162Z,1002.62
2019-06-07T11:57:50.422Z,1002.59
2019-06-07T11:58:50.173Z,1002.59
2019-06-07T11:59:50.129Z,1002.63
2019-06-07T12:00:50.127Z,1002.63
2019-06-07T12:01:50.098Z,1002.52
2019-06-07T12:02:50.101Z,1002.56
2019-06-07T12:03:50.127Z,1002.56
2019-06-07T12:04:50.075Z,1002.58
2019-06-07T12:05:50.046Z,1002.63
2019-06-07T12:06:50.083Z,1002.47
2019-06-07T12:07:50.040Z,1002.49
2019-06-07T12:08:50.049Z,1002.46
2019-06-07T12:09:56.398Z,1002.40
2019-06-07T12:10:51.016Z,1002.43
2019-06-07T12:11:50.024Z,1002.36
2019-06-07T12:12:50.000Z,1002.40